Time;durP1;ratioP1;P1;durP2;ratioP2;P2;SDS_P1;SDS_P2;PMS_P1;PMS_P2;Temp;Humidity;BMP_temperature;BMP_pressure;BME280_temperature;BME280_humidity;BME280_pressure;Samples;Min_cycle;Max_cycle;Signal;HPM_P1;HPM_P2
2023/09/17 00:01:23;;;;;;;9.77;5.70;;;22.30;66.90;;;;;;4968550;28;20209;-73
2023/09/17 00:03:50;;;;;;;8.90;5.10;;;22.20;66.90;;;;;;4981298;28;20186;-72
2023/09/17 00:06:15;;;;;;;6.63;4.90;;;22.10;67.20;;;;;;4975323;28;20465;-72
2023/09/17 00:08:41;;;;;;;7.13;5.07;;;22.00;67.50;;;;;;4978868;28;20506;-73
2023/09/17 00:11:07;;;;;;;6.30;4.20;;;22.00;67.60;;;;;;4977013;28;20225;-73
2023/09/17 00:13:32;;;;;;;7.20;4.70;;;21.90;67.70;;;;;;4976504;28;20205;-73
2023/09/17 00:15:59;;;;;;;6.03;4.40;;;21.90;67.90;;;;;;4970788;28;20488;-74
2023/09/17 00:18:25;;;;;;;6.10;4.50;;;21.80;67.70;;;;;;4979199;28;20576;-72
2023/09/17 00:20:51;;;;;;;6.97;4.60;;;21.80;67.90;;;;;;4978385;28;20441;-72
2023/09/17 00:23:17;;;;;;;7.20;4.60;;;21.70;67.90;;;;;;4978165;28;20559;-72
2023/09/17 00:28:11;;;;;;;8.03;4.57;;;21.60;67.90;;;;;;5002248;28;20275;-73
2023/09/17 00:30:36;;;;;;;7.30;4.20;;;21.60;68.30;;;;;;5006114;28;20487;-71
2023/09/17 00:33:02;;;;;;;5.50;4.43;;;21.50;68.80;;;;;;5010375;28;20195;-72
2023/09/17 00:35:28;;;;;;;5.97;4.40;;;21.50;68.80;;;;;;5002929;28;20211;-72
2023/09/17 00:37:53;;;;;;;9.70;5.60;;;21.50;69.10;;;;;;5006714;28;20185;-72
2023/09/17 00:40:23;;;;;;;7.90;4.60;;;21.50;69.20;;;;;;5003910;28;20189;-73
2023/09/17 00:42:49;;;;;;;6.70;5.00;;;21.50;69.50;;;;;;5008045;28;20248;-73
2023/09/17 00:45:14;;;;;;;7.13;4.80;;;21.40;69.50;;;;;;5003431;28;20523;-72
2023/09/17 00:47:40;;;;;;;6.97;4.90;;;21.30;69.80;;;;;;5011305;28;20676;-74
2023/09/17 00:50:08;;;;;;;5.83;4.77;;;21.30;69.80;;;;;;5003991;28;20471;-72
2023/09/17 00:52:34;;;;;;;10.23;5.10;;;21.30;69.90;;;;;;5022386;28;20354;-74
2023/09/17 00:55:00;;;;;;;8.73;5.53;;;21.30;70.10;;;;;;5005718;28;20979;-72
2023/09/17 00:57:26;;;;;;;6.53;4.70;;;21.20;70.20;;;;;;5017951;28;20665;-73
2023/09/17 00:59:52;;;;;;;7.23;4.97;;;21.20;70.50;;;;;;5005634;28;20446;-72
2023/09/17 01:02:21;;;;;;;7.00;4.77;;;21.20;70.80;;;;;;5002394;28;20214;-73
2023/09/17 01:04:49;;;;;;;6.77;4.90;;;21.10;71.00;;;;;;5007104;28;20220;-72
2023/09/17 01:07:19;;;;;;;8.63;5.23;;;21.10;71.30;;;;;;5004615;28;20508;-73
2023/09/17 01:09:45;;;;;;;7.33;5.00;;;21.10;71.40;;;;;;5003060;28;20927;-73
2023/09/17 01:12:12;;;;;;;8.50;6.20;;;21.00;71.60;;;;;;5004246;28;20462;-73
2023/09/17 01:14:38;;;;;;;7.87;5.53;;;21.00;72.10;;;;;;5000826;28;20439;-73
2023/09/17 01:17:07;;;;;;;7.73;5.57;;;20.90;72.40;;;;;;5000441;28;20808;-73
2023/09/17 01:19:34;;;;;;;8.70;5.90;;;20.90;72.70;;;;;;5007210;28;20432;-73
2023/09/17 01:22:09;;;;;;;9.37;6.10;;;20.90;72.40;;;;;;4998330;28;20955;-73
2023/09/17 01:24:40;;;;;;;8.13;6.10;;;21.00;72.60;;;;;;5002442;28;20448;-73
2023/09/17 01:27:06;;;;;;;8.50;5.80;;;20.90;72.60;;;;;;4997589;28;20470;-72
2023/09/17 01:29:40;;;;;;;8.03;5.60;;;20.90;72.90;;;;;;4999767;28;20489;-72
2023/09/17 01:32:06;;;;;;;7.97;5.13;;;20.90;72.90;;;;;;4997748;28;20820;-71
2023/09/17 01:34:34;;;;;;;7.67;5.63;;;21.00;72.90;;;;;;5004956;28;20434;-72
2023/09/17 01:37:02;;;;;;;10.23;5.63;;;21.00;72.90;;;;;;4996922;28;21343;-72
2023/09/17 01:39:33;;;;;;;7.60;4.83;;;21.00;72.60;;;;;;5002728;28;20427;-71
2023/09/17 01:42:00;;;;;;;9.87;6.17;;;20.90;73.20;;;;;;4995732;28;20592;-73
2023/09/17 01:44:29;;;;;;;8.40;5.63;;;20.90;73.50;;;;;;5003902;28;20482;-72
2023/09/17 01:46:56;;;;;;;8.60;5.00;;;20.80;73.60;;;;;;5000592;28;20457;-73
2023/09/17 01:49:22;;;;;;;10.53;6.37;;;20.80;73.70;;;;;;5003186;28;20437;-73
2023/09/17 01:51:48;;;;;;;9.03;6.30;;;20.80;74.00;;;;;;5003114;28;20452;-73
2023/09/17 01:54:14;;;;;;;8.90;6.07;;;20.80;73.90;;;;;;5005285;28;20426;-73
2023/09/17 01:56:41;;;;;;;8.90;6.27;;;20.90;73.70;;;;;;5005679;28;20507;-73
2023/09/17 01:59:07;;;;;;;9.47;6.13;;;20.90;73.60;;;;;;5003520;28;20219;-73
2023/09/17 02:01:33;;;;;;;11.37;5.70;;;20.90;73.60;;;;;;5007117;28;20465;-73
2023/09/17 02:03:58;;;;;;;9.10;6.30;;;20.90;73.50;;;;;;4999061;28;20187;-72
2023/09/17 02:06:24;;;;;;;7.90;5.47;;;20.90;73.30;;;;;;5002162;28;20202;-73
2023/09/17 02:08:50;;;;;;;8.70;5.80;;;20.90;73.50;;;;;;4997786;28;20656;-72
2023/09/17 02:11:15;;;;;;;7.13;5.47;;;20.90;73.50;;;;;;5000796;28;20226;-72
2023/09/17 02:13:41;;;;;;;11.93;6.43;;;20.90;73.50;;;;;;5000208;28;20179;-73
2023/09/17 02:16:07;;;;;;;14.00;6.43;;;20.90;73.50;;;;;;4994287;28;20710;-73
2023/09/17 02:18:33;;;;;;;9.20;5.30;;;20.90;73.50;;;;;;5001802;28;20713;-73
2023/09/17 02:20:58;;;;;;;9.10;5.70;;;20.90;73.60;;;;;;5004908;28;20418;-73
2023/09/17 02:23:24;;;;;;;8.00;5.97;;;20.80;73.60;;;;;;4998205;28;20270;-73
2023/09/17 02:25:49;;;;;;;8.10;5.87;;;20.80;73.90;;;;;;4994228;28;20249;-72
2023/09/17 02:28:15;;;;;;;11.10;6.80;;;20.80;74.00;;;;;;5000044;28;20201;-71
2023/09/17 02:30:41;;;;;;;8.23;5.77;;;20.80;74.30;;;;;;5005571;28;20667;-71
2023/09/17 02:33:10;;;;;;;7.10;5.60;;;20.80;74.20;;;;;;5003535;28;20448;-71
2023/09/17 02:35:36;;;;;;;8.97;5.70;;;20.80;74.20;;;;;;4999729;28;20265;-71
2023/09/17 02:38:03;;;;;;;8.37;5.77;;;20.70;74.50;;;;;;5003693;28;20448;-71
2023/09/17 02:40:29;;;;;;;8.30;6.00;;;20.70;74.80;;;;;;5004091;28;20425;-73
2023/09/17 02:42:54;;;;;;;9.00;5.70;;;20.70;74.50;;;;;;5004994;28;20522;-72
2023/09/17 02:45:20;;;;;;;9.03;5.90;;;20.70;74.80;;;;;;5003085;28;20212;-73
2023/09/17 02:47:46;;;;;;;11.50;5.67;;;20.70;74.90;;;;;;5005727;28;20214;-72
2023/09/17 02:50:12;;;;;;;7.40;5.57;;;20.70;74.90;;;;;;5013635;28;20246;-73
2023/09/17 02:52:39;;;;;;;7.50;5.57;;;20.60;74.90;;;;;;5004750;28;20442;-72
2023/09/17 02:55:05;;;;;;;8.10;6.10;;;20.50;75.20;;;;;;5000918;28;20215;-73
2023/09/17 02:57:31;;;;;;;9.83;6.77;;;20.50;75.50;;;;;;4982262;28;20809;-71
2023/09/17 02:59:56;;;;;;;9.40;5.63;;;20.40;75.80;;;;;;5003390;28;20422;-73
2023/09/17 03:02:22;;;;;;;11.67;6.57;;;20.30;76.10;;;;;;5007539;28;20555;-74
2023/09/17 03:04:50;;;;;;;8.60;6.37;;;20.40;76.10;;;;;;5001851;28;20573;-74
2023/09/17 03:07:18;;;;;;;8.77;5.60;;;20.50;75.90;;;;;;4999249;28;20568;-72
2023/09/17 03:09:44;;;;;;;8.27;6.13;;;20.30;76.20;;;;;;4978639;28;20429;-72
2023/09/17 03:12:11;;;;;;;8.97;6.20;;;20.20;76.50;;;;;;4999667;28;20444;-73
2023/09/17 03:14:36;;;;;;;9.43;6.47;;;20.20;77.10;;;;;;5000084;28;20445;-72
2023/09/17 03:17:05;;;;;;;8.63;6.43;;;20.00;77.40;;;;;;5001130;28;20503;-72
2023/09/17 03:19:31;;;;;;;11.23;6.83;;;20.00;77.80;;;;;;5001924;28;20188;-72
2023/09/17 03:21:56;;;;;;;8.17;5.90;;;20.00;77.70;;;;;;5002121;28;20433;-71
2023/09/17 03:24:22;;;;;;;9.07;6.30;;;20.00;77.80;;;;;;4993053;28;20197;-72
2023/09/17 03:26:47;;;;;;;9.07;6.33;;;20.00;77.80;;;;;;5005140;28;20213;-72
2023/09/17 03:29:13;;;;;;;8.93;6.40;;;20.00;78.00;;;;;;4999224;28;20206;-73
2023/09/17 03:31:41;;;;;;;9.60;6.43;;;20.00;78.10;;;;;;5007571;28;20210;-73
2023/09/17 03:34:06;;;;;;;8.97;6.37;;;20.00;78.00;;;;;;5005541;28;20210;-73
2023/09/17 03:36:35;;;;;;;8.90;6.13;;;20.00;78.10;;;;;;5005117;28;20469;-73
2023/09/17 03:39:00;;;;;;;13.13;8.30;;;19.90;78.30;;;;;;4993773;28;20191;-72
2023/09/17 03:41:26;;;;;;;10.03;7.00;;;19.90;78.40;;;;;;4998474;28;20417;-72
2023/09/17 03:43:53;;;;;;;9.80;6.10;;;19.90;78.60;;;;;;5006525;28;20193;-73
2023/09/17 03:46:19;;;;;;;11.20;7.33;;;19.90;78.70;;;;;;4996209;28;20220;-72
2023/09/17 03:48:46;;;;;;;11.43;7.47;;;19.90;78.70;;;;;;4996177;28;20429;-71
2023/09/17 03:51:12;;;;;;;8.53;6.60;;;19.90;78.70;;;;;;5002224;28;20301;-73
2023/09/17 03:53:38;;;;;;;10.67;6.73;;;19.90;78.60;;;;;;4996392;28;20548;-73
2023/09/17 03:56:04;;;;;;;7.63;6.00;;;19.90;78.70;;;;;;5001955;28;20292;-72
2023/09/17 03:58:30;;;;;;;8.93;7.10;;;19.90;78.70;;;;;;5002341;28;20432;-73
2023/09/17 04:00:55;;;;;;;11.03;7.10;;;19.90;78.70;;;;;;4997375;28;20856;-72
2023/09/17 04:03:21;;;;;;;10.70;6.60;;;19.80;78.90;;;;;;5002321;28;20956;-72
2023/09/17 04:05:49;;;;;;;11.63;7.30;;;19.90;78.70;;;;;;4997475;28;20907;-73
2023/09/17 04:08:15;;;;;;;10.20;6.77;;;19.80;78.90;;;;;;4999531;28;20206;-73
2023/09/17 04:10:40;;;;;;;10.80;7.27;;;19.80;79.00;;;;;;4996602;28;20480;-72
2023/09/17 04:13:06;;;;;;;10.83;7.00;;;19.80;79.00;;;;;;4995097;28;20456;-71
2023/09/17 04:15:32;;;;;;;10.50;7.77;;;19.80;78.90;;;;;;5000037;28;20580;-73
2023/09/17 04:17:58;;;;;;;9.23;6.30;;;19.70;79.20;;;;;;5004193;28;20428;-73
2023/09/17 04:20:23;;;;;;;10.00;7.10;;;19.70;79.50;;;;;;4997416;28;20189;-73
2023/09/17 04:22:50;;;;;;;11.37;7.10;;;19.60;79.60;;;;;;5001707;28;20186;-73
2023/09/17 04:25:18;;;;;;;12.53;7.60;;;19.60;79.70;;;;;;4995392;28;20223;-72
2023/09/17 04:27:44;;;;;;;11.77;7.33;;;19.50;80.00;;;;;;4997187;28;20429;-73
2023/09/17 04:30:13;;;;;;;10.17;7.33;;;19.60;80.20;;;;;;4990317;28;20518;-73
2023/09/17 04:32:40;;;;;;;11.70;7.40;;;19.50;80.20;;;;;;4998336;28;20508;-72
2023/09/17 04:35:07;;;;;;;10.60;7.30;;;19.60;80.50;;;;;;4997403;28;20535;-71
2023/09/17 04:37:37;;;;;;;9.87;7.30;;;19.60;80.50;;;;;;5000903;28;20448;-72
2023/09/17 04:40:08;;;;;;;9.47;7.10;;;19.50;80.50;;;;;;4994334;28;20446;-73
2023/09/17 04:42:44;;;;;;;12.47;7.60;;;19.50;80.60;;;;;;5001903;28;20956;-73
2023/09/17 04:45:11;;;;;;;11.00;7.20;;;19.50;80.80;;;;;;4998731;28;20493;-72
2023/09/17 04:47:37;;;;;;;14.50;7.77;;;19.50;80.90;;;;;;4999984;28;20430;-71
2023/09/17 04:50:07;;;;;;;11.70;7.47;;;19.40;80.80;;;;;;5003584;28;20451;-73
2023/09/17 04:52:33;;;;;;;11.50;7.43;;;19.40;80.90;;;;;;5005794;28;20418;-73
2023/09/17 04:54:59;;;;;;;10.23;7.20;;;19.40;80.90;;;;;;5000324;28;20540;-73
2023/09/17 04:57:25;;;;;;;9.83;6.37;;;19.50;80.90;;;;;;5001458;28;20409;-72
2023/09/17 04:59:50;;;;;;;12.97;7.90;;;19.50;80.90;;;;;;5003292;28;20182;-73
2023/09/17 05:02:16;;;;;;;12.33;8.10;;;19.50;80.90;;;;;;5009623;28;20214;-73
2023/09/17 05:04:42;;;;;;;12.30;7.93;;;19.50;81.10;;;;;;5001082;28;20339;-73
2023/09/17 05:07:08;;;;;;;12.20;8.13;;;19.50;80.90;;;;;;5000967;28;20705;-73
2023/09/17 05:09:34;;;;;;;10.37;7.50;;;19.50;80.90;;;;;;5009120;28;20476;-72
2023/09/17 05:11:59;;;;;;;12.30;8.00;;;19.50;81.10;;;;;;4997562;28;20221;-72
2023/09/17 05:14:26;;;;;;;10.97;7.50;;;19.50;80.80;;;;;;5005658;28;20428;-71
2023/09/17 05:16:51;;;;;;;10.83;7.33;;;19.50;80.90;;;;;;5002571;28;20213;-73
2023/09/17 05:19:17;;;;;;;10.40;7.43;;;19.50;81.10;;;;;;5003343;28;20429;-74
2023/09/17 05:21:42;;;;;;;12.20;7.50;;;19.50;81.20;;;;;;4994465;28;20216;-72
2023/09/17 05:24:08;;;;;;;11.17;7.50;;;19.50;81.10;;;;;;4996377;28;20660;-71
2023/09/17 05:26:34;;;;;;;11.00;7.70;;;19.50;81.10;;;;;;4996216;28;20219;-73
2023/09/17 05:28:59;;;;;;;9.60;7.07;;;19.50;81.10;;;;;;5004329;28;20190;-73
2023/09/17 05:31:25;;;;;;;11.77;7.37;;;19.50;81.20;;;;;;4999460;28;20216;-72
2023/09/17 05:33:53;;;;;;;12.73;7.83;;;19.50;81.10;;;;;;4997541;28;20198;-71
2023/09/17 05:36:18;;;;;;;13.23;8.53;;;19.50;80.90;;;;;;4995755;28;20256;-74
2023/09/17 05:38:44;;;;;;;11.27;7.30;;;19.70;80.60;;;;;;5001304;28;20925;-73
2023/09/17 05:41:12;;;;;;;13.50;8.13;;;19.60;80.60;;;;;;4996889;28;20703;-73
2023/09/17 05:43:38;;;;;;;13.53;8.00;;;19.60;80.60;;;;;;5001698;28;20531;-72
2023/09/17 05:46:04;;;;;;;14.17;9.23;;;19.50;80.80;;;;;;5000252;28;20460;-71
2023/09/17 05:48:31;;;;;;;10.40;7.30;;;19.50;80.90;;;;;;5001597;28;20466;-72
2023/09/17 05:50:57;;;;;;;10.43;7.43;;;19.50;81.40;;;;;;4999253;28;20457;-73
2023/09/17 05:53:23;;;;;;;11.53;7.13;;;19.60;81.20;;;;;;5002281;28;20424;-72
2023/09/17 05:55:48;;;;;;;11.57;7.47;;;19.70;80.80;;;;;;5001000;28;20259;-72
2023/09/17 05:58:14;;;;;;;15.23;8.60;;;19.70;80.60;;;;;;4999318;28;20189;-72
2023/09/17 06:00:40;;;;;;;11.80;8.30;;;19.70;80.80;;;;;;5003172;28;20186;-72
2023/09/17 06:03:07;;;;;;;12.87;7.80;;;19.80;80.80;;;;;;4997719;28;20199;-72
2023/09/17 06:05:34;;;;;;;13.23;7.87;;;19.80;80.60;;;;;;5001567;28;20211;-73
2023/09/17 06:07:59;;;;;;;12.03;7.67;;;19.90;80.50;;;;;;4996790;28;20476;-73
2023/09/17 06:10:26;;;;;;;11.93;7.50;;;20.10;80.00;;;;;;4984339;28;20473;-72
2023/09/17 06:12:51;;;;;;;14.00;8.47;;;20.10;79.70;;;;;;4996217;28;20191;-72
2023/09/17 06:15:17;;;;;;;11.90;8.30;;;20.10;79.60;;;;;;5005890;28;20460;-72
2023/09/17 06:17:44;;;;;;;11.80;7.33;;;20.20;79.30;;;;;;4996331;28;20641;-71
2023/09/17 06:20:09;;;;;;;10.47;7.60;;;20.40;78.90;;;;;;5004364;28;20195;-73
2023/09/17 06:22:35;;;;;;;12.30;8.43;;;20.40;78.40;;;;;;4996675;28;20423;-72
2023/09/17 06:25:01;;;;;;;10.63;8.00;;;20.50;78.40;;;;;;5008419;28;20875;-73
2023/09/17 06:27:26;;;;;;;10.80;7.40;;;20.60;78.10;;;;;;5004856;28;20195;-73
2023/09/17 06:29:52;;;;;;;12.33;7.80;;;20.70;78.00;;;;;;5010403;28;20269;-73
2023/09/17 06:32:18;;;;;;;13.13;7.47;;;20.70;78.00;;;;;;5010754;28;20230;-73
2023/09/17 06:34:43;;;;;;;12.43;7.83;;;20.70;78.00;;;;;;5011642;28;20610;-72
2023/09/17 06:37:10;;;;;;;11.40;7.40;;;20.80;77.70;;;;;;5008142;28;20472;-75
2023/09/17 06:39:35;;;;;;;10.27;7.20;;;20.90;77.40;;;;;;5014136;28;20184;-73
2023/09/17 06:42:01;;;;;;;12.07;8.33;;;20.90;77.30;;;;;;5017328;28;20436;-73
2023/09/17 06:44:26;;;;;;;9.93;7.73;;;21.00;77.00;;;;;;4999212;28;20557;-72
2023/09/17 06:46:52;;;;;;;11.00;7.33;;;21.10;77.00;;;;;;4999949;28;20226;-72
2023/09/17 06:49:18;;;;;;;11.10;7.30;;;21.10;77.00;;;;;;5000842;28;20195;-72
2023/09/17 06:51:45;;;;;;;13.53;8.60;;;21.10;77.00;;;;;;5001414;28;20212;-71
2023/09/17 06:54:11;;;;;;;12.43;7.70;;;21.10;76.70;;;;;;5000266;28;20432;-72
2023/09/17 06:56:37;;;;;;;10.10;7.20;;;21.10;76.40;;;;;;4994182;28;20536;-72
2023/09/17 06:59:03;;;;;;;12.00;7.90;;;21.10;76.20;;;;;;4999903;28;20938;-72
2023/09/17 07:01:29;;;;;;;12.07;7.00;;;21.20;75.90;;;;;;4991613;28;20183;-73
2023/09/17 07:03:55;;;;;;;12.47;8.23;;;21.30;75.80;;;;;;5003103;28;20519;-72
2023/09/17 07:06:21;;;;;;;13.17;8.30;;;21.40;75.50;;;;;;5005915;28;20208;-73
2023/09/17 07:08:47;;;;;;;10.00;7.27;;;21.40;75.40;;;;;;4996873;28;20192;-73
2023/09/17 07:11:12;;;;;;;10.07;6.97;;;21.40;75.40;;;;;;4997765;28;20569;-73
2023/09/17 07:13:39;;;;;;;12.13;7.67;;;21.50;75.20;;;;;;5000575;28;20194;-73
2023/09/17 07:16:05;;;;;;;12.40;8.10;;;21.60;74.80;;;;;;5003917;28;20262;-72
2023/09/17 07:18:31;;;;;;;9.80;7.57;;;21.70;74.50;;;;;;4995353;28;20424;-73
2023/09/17 07:20:57;;;;;;;10.57;7.40;;;21.80;74.00;;;;;;5003569;28;20799;-73
2023/09/17 07:23:23;;;;;;;11.00;7.70;;;21.90;73.50;;;;;;5001909;28;20433;-73
2023/09/17 07:25:50;;;;;;;11.40;7.43;;;22.00;73.20;;;;;;4998582;28;20208;-72
2023/09/17 07:28:20;;;;;;;12.80;8.10;;;22.00;73.20;;;;;;5004031;28;20602;-71
2023/09/17 07:30:46;;;;;;;12.40;7.50;;;22.10;72.90;;;;;;5003291;28;20582;-73
2023/09/17 07:33:12;;;;;;;9.67;7.50;;;22.10;72.70;;;;;;4995853;28;20457;-73
2023/09/17 07:35:39;;;;;;;11.87;8.03;;;22.20;72.30;;;;;;5003516;28;20212;-72
2023/09/17 07:38:06;;;;;;;11.23;7.60;;;22.30;72.10;;;;;;4996482;28;20423;-72
2023/09/17 07:40:37;;;;;;;11.43;7.50;;;22.20;72.00;;;;;;5002207;28;20436;-72
2023/09/17 07:43:04;;;;;;;10.87;7.03;;;22.30;72.00;;;;;;4992838;28;20425;-72
2023/09/17 07:45:33;;;;;;;14.10;7.70;;;22.40;71.80;;;;;;5000978;28;21354;-72
2023/09/17 07:47:59;;;;;;;11.17;7.20;;;22.50;71.80;;;;;;4999200;28;20434;-72
2023/09/17 07:50:25;;;;;;;12.30;7.23;;;22.60;70.80;;;;;;4999075;28;20476;-72
2023/09/17 07:52:51;;;;;;;9.67;7.60;;;22.60;70.50;;;;;;4998264;28;20437;-72
2023/09/17 07:55:18;;;;;;;14.70;7.93;;;22.70;70.40;;;;;;4982508;28;20221;-72
2023/09/17 07:57:44;;;;;;;11.17;7.30;;;22.70;70.50;;;;;;5000073;28;20235;-72
2023/09/17 08:00:12;;;;;;;9.90;6.93;;;22.80;70.20;;;;;;4998471;28;20436;-74
2023/09/17 08:02:37;;;;;;;9.30;6.70;;;22.90;70.20;;;;;;5002741;28;20512;-72
2023/09/17 08:05:03;;;;;;;11.70;6.57;;;23.00;69.20;;;;;;4998758;28;20537;-73
2023/09/17 08:07:29;;;;;;;8.17;5.80;;;23.10;68.90;;;;;;5003321;28;20924;-74
2023/09/17 08:09:54;;;;;;;9.97;6.73;;;23.00;67.30;;;;;;5002882;28;20180;-73
2023/09/17 08:12:20;;;;;;;8.97;5.80;;;23.10;68.20;;;;;;5002739;28;20580;-74
2023/09/17 08:14:46;;;;;;;8.73;5.70;;;23.10;67.50;;;;;;4996095;28;20201;-72
2023/09/17 08:17:12;;;;;;;9.60;6.23;;;23.20;67.20;;;;;;5008386;28;20207;-72
2023/09/17 08:19:38;;;;;;;14.13;6.30;;;23.30;67.90;;;;;;5010161;28;20177;-72
2023/09/17 08:22:04;;;;;;;8.13;5.70;;;23.40;66.90;;;;;;5005074;28;20446;-75
2023/09/17 08:24:30;;;;;;;9.13;6.07;;;23.50;66.10;;;;;;5001598;28;20512;-74
2023/09/17 08:26:56;;;;;;;7.97;5.47;;;23.60;66.10;;;;;;5007847;28;20470;-74
2023/09/17 08:29:22;;;;;;;7.47;5.37;;;23.70;65.30;;;;;;5000746;28;20196;-73
2023/09/17 08:31:48;;;;;;;6.03;4.50;;;23.80;63.90;;;;;;5008293;28;20487;-74
2023/09/17 08:34:15;;;;;;;9.97;4.47;;;24.00;63.50;;;;;;5000039;28;20506;-73
2023/09/17 08:36:40;;;;;;;8.23;4.93;;;24.10;62.60;;;;;;5002947;28;20467;-72
2023/09/17 08:39:09;;;;;;;7.53;4.57;;;24.20;62.00;;;;;;4997720;28;20429;-72
2023/09/17 08:41:35;;;;;;;8.60;4.33;;;24.30;62.00;;;;;;5004969;28;20263;-72
2023/09/17 08:44:04;;;;;;;7.13;4.77;;;24.40;62.30;;;;;;5001563;28;20461;-73
2023/09/17 08:46:31;;;;;;;11.87;4.90;;;24.40;62.00;;;;;;5004340;28;20491;-71
2023/09/17 08:48:56;;;;;;;8.60;4.47;;;24.40;62.00;;;;;;4998216;28;20430;-74
2023/09/17 08:51:24;;;;;;;8.83;4.80;;;24.60;62.20;;;;;;5003909;28;20562;-74
2023/09/17 08:53:59;;;;;;;8.30;4.67;;;24.60;62.00;;;;;;5005044;28;20610;-73
2023/09/17 08:56:26;;;;;;;7.60;4.63;;;24.60;61.90;;;;;;4997806;28;20456;-72
2023/09/17 08:58:58;;;;;;;7.57;4.83;;;24.70;62.00;;;;;;4998576;28;20536;-73
2023/09/17 09:01:25;;;;;;;10.37;4.83;;;24.80;61.90;;;;;;5000797;28;20440;-73
2023/09/17 09:03:53;;;;;;;7.33;5.10;;;24.90;62.00;;;;;;5002206;28;20873;-72
2023/09/17 09:06:21;;;;;;;10.93;4.80;;;24.90;61.90;;;;;;4982442;28;20522;-72
2023/09/17 09:08:49;;;;;;;8.40;4.80;;;25.10;61.20;;;;;;5002630;28;20836;-74
2023/09/17 09:11:15;;;;;;;8.97;4.50;;;25.30;60.90;;;;;;4999992;28;20467;-73
2023/09/17 09:13:41;;;;;;;7.80;4.80;;;25.40;60.40;;;;;;5006550;28;20425;-73
2023/09/17 09:16:07;;;;;;;6.23;4.67;;;25.50;60.70;;;;;;4995448;28;20462;-73
2023/09/17 09:18:33;;;;;;;8.60;4.40;;;25.60;60.70;;;;;;5006212;28;20561;-73
2023/09/17 09:20:58;;;;;;;6.87;3.93;;;25.60;60.70;;;;;;5003960;28;20187;-73
2023/09/17 09:23:25;;;;;;;7.83;4.07;;;25.70;60.90;;;;;;5006033;28;20175;-71
2023/09/17 09:25:51;;;;;;;10.87;4.27;;;25.80;60.70;;;;;;4997998;28;20291;-73
2023/09/17 09:28:16;;;;;;;8.83;3.67;;;26.00;60.30;;;;;;5006864;28;20507;-75
2023/09/17 09:30:45;;;;;;;8.77;3.83;;;26.10;59.70;;;;;;4998443;28;20212;-73
2023/09/17 09:33:12;;;;;;;9.63;3.70;;;26.20;59.70;;;;;;5006658;28;20295;-74
2023/09/17 09:35:38;;;;;;;12.43;3.70;;;26.20;59.50;;;;;;4998608;28;20469;-73
2023/09/17 09:38:04;;;;;;;7.27;4.10;;;26.20;58.90;;;;;;5001254;28;20436;-71
2023/09/17 09:40:34;;;;;;;8.47;4.37;;;26.20;59.20;;;;;;4998887;28;20427;-73
2023/09/17 09:43:00;;;;;;;6.77;3.47;;;26.20;59.60;;;;;;5005030;28;20217;-73
2023/09/17 09:45:27;;;;;;;12.43;4.40;;;26.50;59.50;;;;;;5001615;28;20451;-73
2023/09/17 09:47:54;;;;;;;9.07;4.13;;;26.60;58.90;;;;;;4989322;28;20185;-72
2023/09/17 09:50:24;;;;;;;8.17;4.10;;;26.70;59.10;;;;;;5009622;28;20585;-73
2023/09/17 09:52:50;;;;;;;6.67;3.83;;;26.60;59.30;;;;;;4982845;28;20967;-73
2023/09/17 09:55:15;;;;;;;7.10;3.57;;;26.80;58.90;;;;;;5004876;28;21044;-71
2023/09/17 09:57:42;;;;;;;10.30;4.27;;;26.90;58.50;;;;;;5003237;28;20504;-72
2023/09/17 10:00:14;;;;;;;7.60;4.53;;;26.90;58.50;;;;;;5008584;28;20187;-73
2023/09/17 10:02:40;;;;;;;8.03;4.30;;;26.90;58.50;;;;;;5002735;28;20952;-73
2023/09/17 10:05:10;;;;;;;6.90;3.90;;;26.90;58.50;;;;;;5006378;28;20503;-75
2023/09/17 10:07:35;;;;;;;11.50;4.50;;;27.00;58.70;;;;;;5004759;28;20421;-73
2023/09/17 10:10:01;;;;;;;9.70;4.47;;;27.10;58.90;;;;;;5012234;28;20527;-74
2023/09/17 10:12:27;;;;;;;6.30;4.20;;;27.10;58.80;;;;;;4995733;28;20196;-72
2023/09/17 10:14:53;;;;;;;8.73;3.60;;;27.10;58.10;;;;;;5003178;28;20216;-73
2023/09/17 10:17:19;;;;;;;7.70;3.93;;;27.10;58.20;;;;;;4998105;28;20430;-70
2023/09/17 10:19:46;;;;;;;7.43;3.60;;;27.20;58.10;;;;;;5002471;28;20181;-71
2023/09/17 10:22:14;;;;;;;10.13;4.03;;;27.30;58.10;;;;;;4998544;28;20417;-73
2023/09/17 10:24:41;;;;;;;12.60;4.20;;;27.30;58.00;;;;;;4999106;28;20441;-72
2023/09/17 10:27:08;;;;;;;8.53;3.63;;;27.50;57.60;;;;;;4995724;28;20953;-72
2023/09/17 10:29:38;;;;;;;5.43;3.20;;;27.70;56.00;;;;;;5001635;28;20424;-71
2023/09/17 10:32:05;;;;;;;6.63;3.30;;;27.70;56.20;;;;;;5003876;28;20472;-72
2023/09/17 10:34:33;;;;;;;6.00;3.87;;;27.80;56.20;;;;;;4984750;28;20805;-72
2023/09/17 10:37:00;;;;;;;7.80;3.80;;;28.00;56.10;;;;;;5000213;28;20819;-72
2023/09/17 10:39:27;;;;;;;7.80;4.00;;;28.10;55.60;;;;;;5002123;28;20420;-72
2023/09/17 10:41:55;;;;;;;5.67;3.80;;;28.40;55.40;;;;;;5002660;28;20425;-72
2023/09/17 10:44:21;;;;;;;9.13;3.93;;;28.70;55.20;;;;;;5001266;28;20925;-72
2023/09/17 10:46:48;;;;;;;8.43;3.70;;;29.00;54.60;;;;;;5001143;28;20515;-72
2023/09/17 10:49:17;;;;;;;8.53;3.93;;;29.30;54.40;;;;;;4997641;28;20414;-72
2023/09/17 10:51:45;;;;;;;5.83;3.60;;;29.70;54.00;;;;;;5002949;28;20473;-73
2023/09/17 10:54:11;;;;;;;5.23;3.23;;;30.10;53.20;;;;;;4996287;28;20429;-73
2023/09/17 10:56:41;;;;;;;5.20;3.40;;;30.30;52.20;;;;;;5001141;28;20483;-72
2023/09/17 10:59:13;;;;;;;7.80;3.90;;;30.60;52.20;;;;;;4995232;28;20273;-72
2023/09/17 11:01:41;;;;;;;8.17;4.30;;;30.50;50.60;;;;;;5004842;28;20936;-72
2023/09/17 11:04:14;;;;;;;7.87;3.40;;;30.50;50.10;;;;;;5003083;28;20426;-72
2023/09/17 11:06:43;;;;;;;9.00;4.07;;;30.50;50.30;;;;;;5011482;28;20465;-73
2023/09/17 11:09:09;;;;;;;6.70;3.67;;;30.50;50.60;;;;;;4993931;28;20441;-73
2023/09/17 11:11:35;;;;;;;6.43;3.20;;;30.80;50.30;;;;;;5007042;28;20465;-72
2023/09/17 11:14:03;;;;;;;7.90;3.77;;;31.10;50.20;;;;;;4996144;28;20475;-73
2023/09/17 11:16:30;;;;;;;5.83;3.10;;;31.50;49.30;;;;;;5005254;28;20237;-73
2023/09/17 11:19:13;;;;;;;5.20;3.20;;;31.80;48.70;;;;;;5001556;28;20516;-72
2023/09/17 11:21:40;;;;;;;8.30;4.10;;;32.00;48.20;;;;;;5003173;28;20425;-72
2023/09/17 11:24:08;;;;;;;8.67;3.30;;;32.30;47.90;;;;;;5002879;28;20428;-72
2023/09/17 11:26:37;;;;;;;8.13;2.77;;;32.40;45.90;;;;;;4996465;28;20477;-71
2023/09/17 11:29:06;;;;;;;6.87;2.93;;;31.30;46.70;;;;;;4995915;28;20508;-72
2023/09/17 11:31:57;;;;;;;6.30;3.70;;;30.90;48.90;;;;;;5003298;28;20998;-72
2023/09/17 11:34:23;;;;;;;6.70;3.23;;;31.20;48.70;;;;;;4999200;28;20449;-73
2023/09/17 11:36:50;;;;;;;8.23;3.17;;;31.30;48.70;;;;;;5005013;28;20465;-71
2023/09/17 11:39:20;;;;;;;5.93;2.97;;;31.30;48.60;;;;;;4999818;28;20256;-71
2023/09/17 11:41:48;;;;;;;7.80;3.67;;;31.30;47.50;;;;;;5001703;28;20437;-72
2023/09/17 11:44:15;;;;;;;5.50;2.93;;;31.20;47.40;;;;;;5002648;28;20794;-73
2023/09/17 11:46:42;;;;;;;7.00;3.43;;;31.10;47.90;;;;;;5002299;28;20456;-72
2023/09/17 11:49:09;;;;;;;13.10;3.10;;;31.20;47.70;;;;;;5002652;28;20455;-72
2023/09/17 11:51:34;;;;;;;5.90;3.40;;;31.20;47.70;;;;;;5001606;28;20915;-72
2023/09/17 11:54:03;;;;;;;6.60;2.93;;;30.90;47.50;;;;;;5006621;28;20532;-73
2023/09/17 11:56:30;;;;;;;10.27;3.10;;;30.40;49.10;;;;;;5002852;28;20210;-73
2023/09/17 11:59:10;;;;;;;6.03;3.30;;;30.40;49.30;;;;;;5007758;28;20429;-73
2023/09/17 12:01:43;;;;;;;3.87;2.80;;;30.40;49.10;;;;;;5006308;28;20518;-72
2023/09/17 12:04:10;;;;;;;4.73;2.70;;;30.50;48.90;;;;;;4999707;28;20418;-72
2023/09/17 12:06:41;;;;;;;8.47;3.33;;;30.50;48.70;;;;;;5000884;28;20527;-72
2023/09/17 12:09:21;;;;;;;10.00;3.00;;;30.80;48.60;;;;;;4995404;28;20484;-73
2023/09/17 12:11:47;;;;;;;7.30;3.43;;;31.00;48.10;;;;;;4998176;28;20510;-72
2023/09/17 12:14:14;;;;;;;7.70;2.80;;;31.20;48.10;;;;;;4993593;28;20444;-74
2023/09/17 12:16:39;;;;;;;7.93;3.10;;;31.30;47.50;;;;;;5005126;28;20492;-72
2023/09/17 12:19:05;;;;;;;7.47;2.73;;;31.20;47.80;;;;;;5004240;28;20418;-73
2023/09/17 12:21:40;;;;;;;6.00;3.63;;;31.40;47.40;;;;;;5005090;28;20189;-73
2023/09/17 12:24:08;;;;;;;5.37;3.47;;;31.60;47.30;;;;;;4996891;28;20186;-74
2023/09/17 12:29:37;;;;;;;6.17;3.47;;;31.30;47.30;;;;;;5011458;28;20428;-73
2023/09/17 12:32:06;;;;;;;4.27;2.90;;;31.50;47.00;;;;;;5000256;28;21045;-73
2023/09/17 12:34:35;;;;;;;7.50;2.87;;;31.30;45.30;;;;;;5003550;28;20968;-71
2023/09/17 12:37:01;;;;;;;7.67;3.50;;;31.00;46.90;;;;;;4996926;28;20442;-72
2023/09/17 12:39:26;;;;;;;7.60;3.50;;;31.10;47.10;;;;;;4993581;28;20440;-73
2023/09/17 12:41:52;;;;;;;9.43;3.20;;;31.20;47.40;;;;;;4996444;28;20181;-73
2023/09/17 12:44:18;;;;;;;7.53;3.23;;;31.60;46.30;;;;;;5006961;28;20259;-74
2023/09/17 12:46:44;;;;;;;5.00;2.63;;;31.90;46.20;;;;;;4983989;28;20210;-72